Wood Springs, Texas
Current Conditions -  °F | °C
As of 2:53 AM on Saturday 25 Oct 2014 (Local Time) from KTYR Reporting Station
Clear Clear  
Wind Chill: 61°   Ceiling: Unl
Heat Index: 61°   Visibility: 10mi
Dew Point: 57°   Wind: 6mph
Humidity: 87%   Direction: 180°S
Pressure: 30.12"   Gusts: NA
Location:  32.5326°N, 95.4249°W
Report Text: KTYR 250753Z AUTO 18005KT 10SM CLR 16/14 A3012 RMK AO2 SLP194 T01610139
Loading
Personal Weather Stations






























Interactive Weather Map
Tropical Storm Tracking
New forecast layout! Learn more

10-Day Weather Forecast

Advertisements
Track Severe Weather on mobile